createdAt,value
2019-05-23T00:02:24.542Z,11.10
2019-05-23T00:04:56.748Z,11.20
2019-05-23T00:07:28.208Z,11.33
2019-05-23T00:10:01.232Z,10.53
2019-05-23T00:12:34.081Z,10.45
2019-05-23T00:15:08.559Z,9.95
2019-05-23T00:17:40.108Z,9.20
2019-05-23T00:20:11.465Z,9.33
2019-05-23T00:22:42.521Z,9.30
2019-05-23T00:25:15.361Z,8.50
2019-05-23T00:27:47.052Z,9.58
2019-05-23T00:30:20.226Z,10.03
2019-05-23T00:32:53.346Z,9.18
2019-05-23T00:35:26.705Z,8.88
2019-05-23T00:37:58.895Z,8.58
2019-05-23T00:40:30.257Z,9.65
2019-05-23T00:43:01.469Z,8.80
2019-05-23T00:45:34.228Z,8.38
2019-05-23T00:48:05.690Z,7.95
2019-05-23T00:50:37.183Z,7.25
2019-05-23T00:53:08.232Z,6.83
2019-05-23T00:55:39.373Z,13.90
2019-05-23T00:58:11.047Z,7.47
2019-05-23T01:00:43.172Z,7.03
2019-05-23T01:03:15.809Z,6.62
2019-05-23T01:05:46.989Z,6.17
2019-05-23T01:08:18.250Z,6.45
2019-05-23T01:10:50.415Z,7.85
2019-05-23T01:13:23.626Z,7.30
2019-05-23T01:15:56.324Z,7.67
2019-05-23T01:18:27.365Z,7.15
2019-05-23T01:20:58.143Z,7.62
2019-05-23T01:23:31.364Z,7.90
2019-05-23T01:26:02.143Z,8.48
2019-05-23T01:28:34.412Z,8.18
2019-05-23T01:31:06.682Z,9.70
2019-05-23T01:33:39.058Z,9.08
2019-05-23T01:36:11.720Z,8.53
2019-05-23T01:38:44.280Z,9.03
2019-05-23T01:41:15.651Z,9.05
2019-05-23T01:43:47.039Z,8.80
2019-05-23T01:46:19.108Z,9.60
2019-05-23T01:48:50.191Z,9.38
2019-05-23T01:51:22.687Z,9.48
2019-05-23T01:53:53.768Z,9.23
2019-05-23T01:56:24.659Z,9.58
2019-05-23T01:58:55.476Z,9.43
2019-05-23T02:01:26.497Z,8.95
2019-05-23T02:03:57.737Z,9.03
2019-05-23T02:06:28.624Z,8.23
2019-05-23T02:09:00.139Z,8.73
2019-05-23T02:11:31.189Z,7.83
2019-05-23T02:14:02.301Z,8.48
2019-05-23T02:16:34.876Z,8.45
2019-05-23T02:19:06.897Z,7.75
2019-05-23T02:21:38.000Z,8.40
2019-05-23T02:24:09.764Z,8.08
2019-05-23T02:26:40.939Z,8.45
2019-05-23T02:29:11.941Z,7.58
2019-05-23T02:31:43.204Z,8.15
2019-05-23T02:34:14.976Z,8.65
2019-05-23T02:36:46.915Z,7.92
2019-05-23T02:39:19.734Z,8.15
2019-05-23T02:41:52.115Z,7.83
2019-05-23T02:44:24.737Z,8.05
2019-05-23T02:46:57.657Z,8.23
2019-05-23T02:49:31.958Z,7.58
2019-05-23T02:52:06.365Z,7.90
2019-05-23T02:54:38.548Z,7.92
2019-05-23T02:57:13.095Z,8.65
2019-05-23T02:59:46.809Z,7.72
2019-05-23T03:02:21.383Z,8.63
2019-05-23T03:04:53.716Z,8.23
2019-05-23T03:07:28.156Z,8.20
2019-05-23T03:10:00.510Z,8.08
2019-05-23T03:12:32.642Z,8.25
2019-05-23T03:15:05.941Z,8.60
2019-05-23T03:17:39.945Z,8.28
2019-05-23T03:20:12.264Z,8.00
2019-05-23T03:22:46.699Z,8.43
2019-05-23T03:25:20.999Z,7.92
2019-05-23T03:27:52.018Z,8.50
2019-05-23T03:30:24.246Z,8.05
2019-05-23T03:32:56.402Z,8.23
2019-05-23T03:35:28.884Z,8.80
2019-05-23T03:38:00.747Z,8.65
2019-05-23T03:40:33.084Z,8.13
2019-05-23T03:43:03.829Z,7.90
2019-05-23T03:45:39.508Z,8.10
2019-05-23T03:48:09.812Z,9.20
2019-05-23T03:50:40.866Z,8.55
2019-05-23T03:53:12.145Z,8.20
2019-05-23T03:55:43.950Z,8.28
2019-05-23T03:58:16.128Z,7.97
2019-05-23T04:00:49.053Z,8.65
2019-05-23T04:03:20.327Z,8.63
2019-05-23T04:05:53.535Z,7.72
2019-05-23T04:08:26.165Z,9.60
2019-05-23T04:10:59.721Z,7.87
2019-05-23T04:13:31.088Z,8.15
2019-05-23T04:16:03.290Z,8.58
2019-05-23T04:18:35.614Z,9.13
2019-05-23T04:21:06.977Z,9.30
2019-05-23T04:23:38.273Z,8.20
2019-05-23T04:26:09.397Z,8.70
2019-05-23T04:28:40.658Z,8.40
2019-05-23T04:31:13.252Z,8.45
2019-05-23T04:33:44.176Z,8.38
2019-05-23T04:36:15.539Z,8.93
2019-05-23T04:38:46.652Z,8.70
2019-05-23T04:41:17.507Z,8.78
2019-05-23T04:43:48.576Z,8.90
2019-05-23T04:46:20.055Z,8.80
2019-05-23T04:48:53.255Z,8.65
2019-05-23T04:51:25.050Z,7.97
2019-05-23T04:53:57.018Z,8.28
2019-05-23T04:56:31.954Z,8.45
2019-05-23T04:59:05.051Z,8.43
2019-05-23T05:01:36.990Z,8.85
2019-05-23T05:04:08.550Z,8.43
2019-05-23T05:06:39.508Z,9.08
2019-05-23T05:09:11.867Z,8.35
2019-05-23T05:11:42.915Z,9.53
2019-05-23T05:14:13.841Z,8.80
2019-05-23T05:16:45.195Z,9.75
2019-05-23T05:19:16.299Z,10.20
2019-05-23T05:21:47.750Z,9.15
2019-05-23T05:24:18.789Z,9.33
2019-05-23T05:26:49.769Z,10.03
2019-05-23T05:29:20.484Z,9.35
2019-05-23T05:31:52.238Z,10.65
2019-05-23T05:34:23.371Z,10.00
2019-05-23T05:36:54.446Z,10.08
2019-05-23T05:39:25.946Z,10.10
2019-05-23T05:41:57.559Z,11.12
2019-05-23T05:44:28.420Z,11.00
2019-05-23T05:46:59.572Z,11.00
2019-05-23T05:49:30.898Z,10.48
2019-05-23T05:52:02.251Z,10.43
2019-05-23T05:54:33.147Z,10.28
2019-05-23T05:57:04.366Z,10.05
2019-05-23T05:59:35.675Z,10.68
2019-05-23T06:02:08.109Z,10.48
2019-05-23T06:04:39.076Z,9.40
2019-05-23T06:07:11.413Z,10.45
2019-05-23T06:09:43.683Z,9.90
2019-05-23T06:12:14.869Z,9.85
2019-05-23T06:14:46.604Z,9.40
2019-05-23T06:17:18.877Z,10.05
2019-05-23T06:19:50.647Z,9.68
2019-05-23T06:22:22.024Z,8.98
2019-05-23T06:24:55.522Z,9.98
2019-05-23T06:27:25.664Z,10.15
2019-05-23T06:29:56.807Z,9.25
2019-05-23T06:32:29.216Z,9.75
2019-05-23T06:35:00.341Z,9.35
2019-05-23T06:37:34.141Z,12.63
2019-05-23T06:40:04.661Z,8.83
2019-05-23T06:42:35.492Z,8.48
2019-05-23T06:45:09.996Z,9.48
2019-05-23T06:47:41.115Z,8.88
2019-05-23T06:50:15.457Z,9.55
2019-05-23T06:52:46.679Z,9.90
2019-05-23T06:55:20.494Z,9.65
2019-05-23T06:57:51.382Z,9.00
2019-05-23T07:00:25.330Z,9.80
2019-05-23T07:02:56.285Z,9.78
2019-05-23T07:05:30.066Z,9.95
2019-05-23T07:08:00.945Z,9.23
2019-05-23T07:10:31.865Z,9.78
2019-05-23T07:13:03.195Z,9.00
2019-05-23T07:15:33.905Z,8.83
2019-05-23T07:18:05.011Z,9.18
2019-05-23T07:20:36.165Z,9.50
2019-05-23T07:23:08.478Z,9.93
2019-05-23T07:25:39.990Z,10.15
2019-05-23T07:28:10.918Z,9.08
2019-05-23T07:30:41.691Z,8.88
2019-05-23T07:33:12.750Z,9.95
2019-05-23T07:35:43.870Z,9.00
2019-05-23T07:38:14.940Z,7.75
2019-05-23T07:40:46.322Z,7.42
2019-05-23T07:43:17.784Z,9.25
2019-05-23T07:46:00.835Z,9.18
2019-05-23T07:48:30.245Z,8.23
2019-05-23T07:50:59.725Z,9.25
2019-05-23T07:53:29.404Z,9.25
2019-05-23T07:55:59.153Z,8.08
2019-05-23T07:58:28.753Z,7.42
2019-05-23T08:00:58.455Z,7.92
2019-05-23T08:03:28.017Z,8.18
2019-05-23T08:05:57.618Z,7.65
2019-05-23T08:08:27.099Z,7.67
2019-05-23T08:10:56.655Z,7.70
2019-05-23T08:13:26.398Z,8.33
2019-05-23T08:15:56.043Z,8.00
2019-05-23T08:18:25.739Z,7.75
2019-05-23T08:20:55.074Z,8.65
2019-05-23T08:23:24.660Z,8.43
2019-05-23T08:25:54.162Z,7.95
2019-05-23T08:28:25.593Z,7.87
2019-05-23T08:30:55.259Z,8.43
2019-05-23T08:33:25.033Z,8.05
2019-05-23T08:35:54.534Z,7.75
2019-05-23T08:38:24.011Z,6.97
2019-05-23T08:40:53.602Z,8.00
2019-05-23T08:43:23.387Z,7.65
2019-05-23T08:45:52.834Z,6.87
2019-05-23T08:48:22.278Z,6.87
2019-05-23T08:50:55.699Z,7.67
2019-05-23T08:53:25.373Z,10.85
2019-05-23T08:55:55.022Z,7.00
2019-05-23T08:58:37.188Z,6.72
2019-05-23T09:01:05.813Z,6.47
2019-05-23T09:03:40.354Z,6.30
2019-05-23T09:06:09.877Z,6.20
2019-05-23T09:08:39.348Z,6.05
2019-05-23T09:11:08.751Z,6.03
2019-05-23T09:13:42.058Z,6.53
2019-05-23T09:16:13.551Z,6.15
2019-05-23T09:18:44.997Z,6.12
2019-05-23T09:21:16.706Z,7.33
2019-05-23T09:23:47.790Z,6.90
2019-05-23T09:26:19.133Z,7.05
2019-05-23T09:28:50.313Z,7.08
2019-05-23T09:31:23.195Z,6.60
2019-05-23T09:33:54.358Z,6.22
2019-05-23T09:36:25.469Z,6.30
2019-05-23T09:38:56.624Z,6.80
2019-05-23T09:41:27.589Z,6.78
2019-05-23T09:43:58.496Z,6.47
2019-05-23T09:46:29.485Z,6.45
2019-05-23T09:49:11.065Z,5.85
2019-05-23T09:51:40.831Z,6.15
2019-05-23T09:54:11.983Z,6.10
2019-05-23T09:56:43.671Z,5.03
2019-05-23T09:59:15.131Z,6.30
2019-05-23T10:01:46.252Z,6.62
2019-05-23T10:04:17.524Z,8.35
2019-05-23T10:06:48.360Z,11.95
2019-05-23T10:09:19.406Z,8.73
2019-05-23T10:11:50.647Z,8.30
2019-05-23T10:14:26.074Z,8.00
2019-05-23T10:16:57.051Z,7.60
2019-05-23T10:19:28.009Z,8.00
2019-05-23T10:21:59.035Z,6.65
2019-05-23T10:24:30.452Z,5.85
2019-05-23T10:27:01.520Z,5.40
2019-05-23T10:29:32.491Z,5.17
2019-05-23T10:32:03.563Z,4.78
2019-05-23T10:34:34.605Z,4.65
2019-05-23T10:37:08.971Z,5.03
2019-05-23T10:39:40.293Z,5.40
2019-05-23T10:42:11.485Z,4.25
2019-05-23T10:44:44.903Z,4.75
2019-05-23T10:47:15.518Z,4.12
2019-05-23T10:49:47.028Z,5.37
2019-05-23T10:52:18.599Z,7.55
2019-05-23T10:54:49.644Z,4.85
2019-05-23T10:57:21.217Z,5.28
2019-05-23T10:59:52.185Z,5.47
2019-05-23T11:02:26.784Z,7.08
2019-05-23T11:04:56.025Z,8.33
2019-05-23T11:07:27.755Z,7.20
2019-05-23T11:09:58.681Z,5.65
2019-05-23T11:12:29.678Z,5.78
2019-05-23T11:15:00.799Z,5.87
2019-05-23T11:17:31.916Z,6.35
2019-05-23T11:20:14.439Z,6.55
2019-05-23T11:22:44.149Z,6.35
2019-05-23T11:25:16.659Z,7.17
2019-05-23T11:27:47.964Z,7.80
2019-05-23T11:30:20.828Z,6.53
2019-05-23T11:32:51.772Z,8.25
2019-05-23T11:35:22.781Z,7.33
2019-05-23T11:37:53.692Z,7.22
2019-05-23T11:40:24.690Z,6.45
2019-05-23T11:42:55.818Z,6.80
2019-05-23T11:45:28.504Z,5.62
2019-05-23T11:47:59.555Z,5.92
2019-05-23T11:50:30.714Z,5.55
2019-05-23T11:53:02.624Z,4.47
2019-05-23T11:55:34.256Z,4.15
2019-05-23T11:58:05.466Z,4.35
2019-05-23T12:00:39.460Z,4.40
2019-05-23T12:03:10.739Z,4.25
2019-05-23T12:05:41.708Z,4.28
2019-05-23T12:08:12.859Z,3.95
2019-05-23T12:10:43.821Z,5.25
2019-05-23T12:13:15.143Z,4.90
2019-05-23T12:15:48.577Z,3.92
2019-05-23T12:18:19.681Z,5.17
2019-05-23T12:20:50.965Z,5.37
2019-05-23T12:23:42.016Z,2.60
2019-05-23T12:26:13.006Z,2.10
2019-05-23T12:28:44.388Z,3.25
2019-05-23T12:31:15.337Z,2.52
2019-05-23T12:33:46.250Z,2.75
2019-05-23T12:36:17.297Z,3.52
2019-05-23T12:38:48.211Z,3.08
2019-05-23T12:41:19.419Z,3.17
2019-05-23T12:43:50.540Z,3.40
2019-05-23T12:46:21.655Z,3.75
2019-05-23T12:48:54.119Z,4.08
2019-05-23T12:51:26.636Z,4.85
2019-05-23T12:53:57.776Z,3.92
2019-05-23T12:56:29.391Z,3.20
2019-05-23T12:59:00.628Z,3.80
2019-05-23T13:01:32.628Z,4.00
2019-05-23T13:04:03.789Z,4.20
2019-05-23T13:06:35.160Z,4.45
2019-05-23T13:09:07.299Z,3.95
2019-05-23T13:11:38.566Z,4.08
2019-05-23T13:14:10.546Z,4.28
2019-05-23T13:16:41.651Z,4.35
2019-05-23T13:19:12.921Z,4.72
2019-05-23T13:21:44.016Z,4.62
2019-05-23T13:24:15.108Z,4.70
2019-05-23T13:26:46.325Z,5.45
2019-05-23T13:29:17.878Z,5.25
2019-05-23T13:31:48.848Z,5.12
2019-05-23T13:34:19.787Z,6.12
2019-05-23T13:36:51.089Z,6.08
2019-05-23T13:39:22.711Z,5.95
2019-05-23T13:41:54.115Z,5.95
2019-05-23T13:44:34.084Z,6.60
2019-05-23T13:46:57.420Z,6.08
2019-05-23T13:49:28.351Z,6.35
2019-05-23T13:51:59.281Z,6.33
2019-05-23T13:54:30.447Z,6.35
2019-05-23T13:57:02.319Z,6.33
2019-05-23T13:59:33.706Z,6.12
2019-05-23T14:02:05.086Z,6.67
2019-05-23T14:04:36.592Z,7.15
2019-05-23T14:07:08.813Z,7.67
2019-05-23T14:09:40.096Z,7.10
2019-05-23T14:12:26.259Z,6.80
2019-05-23T14:14:43.656Z,7.05
2019-05-23T14:17:16.681Z,6.33
2019-05-23T14:19:47.791Z,7.12
2019-05-23T14:22:19.381Z,8.20
2019-05-23T14:24:50.549Z,9.43
2019-05-23T14:27:23.359Z,8.95
2019-05-23T14:29:54.831Z,8.65
2019-05-23T14:32:27.381Z,8.43
2019-05-23T14:34:59.070Z,8.95
2019-05-23T14:37:31.878Z,7.25
2019-05-23T14:40:04.182Z,7.10
2019-05-23T14:42:36.249Z,8.20
2019-05-23T14:45:09.859Z,8.58
2019-05-23T14:47:42.256Z,7.92
2019-05-23T14:50:15.319Z,8.98
2019-05-23T14:52:47.570Z,9.30
2019-05-23T14:55:19.136Z,8.65
2019-05-23T14:57:50.389Z,8.35
2019-05-23T15:00:23.345Z,7.10
2019-05-23T15:02:54.497Z,7.90
2019-05-23T15:05:27.968Z,6.53
2019-05-23T15:07:58.134Z,6.30
2019-05-23T15:10:33.982Z,6.25
2019-05-23T15:13:05.551Z,6.92
2019-05-23T15:15:50.345Z,6.55
2019-05-23T15:18:21.542Z,7.17
2019-05-23T15:20:52.575Z,10.03
2019-05-23T15:23:23.619Z,10.65
2019-05-23T15:25:54.724Z,9.43
2019-05-23T15:28:36.313Z,8.83
2019-05-23T15:31:08.181Z,9.10
2019-05-23T15:33:39.437Z,8.70
2019-05-23T15:36:10.878Z,7.97
2019-05-23T15:38:41.957Z,6.47
2019-05-23T15:41:13.005Z,6.28
2019-05-23T15:43:45.467Z,6.17
2019-05-23T15:46:16.862Z,6.28
2019-05-23T15:48:48.134Z,5.70
2019-05-23T15:51:20.524Z,6.90
2019-05-23T15:53:52.977Z,6.83
2019-05-23T15:56:28.105Z,6.92
2019-05-23T15:58:59.512Z,8.13
2019-05-23T16:01:31.911Z,8.60
2019-05-23T16:04:04.424Z,8.80
2019-05-23T16:06:36.743Z,9.35
2019-05-23T16:09:27.893Z,9.65
2019-05-23T16:11:43.310Z,9.58
2019-05-23T16:14:14.513Z,9.33
2019-05-23T16:16:46.745Z,8.40
2019-05-23T16:19:17.940Z,8.80
2019-05-23T16:21:48.889Z,11.53
2019-05-23T16:24:20.121Z,11.80
2019-05-23T16:26:51.407Z,9.98
2019-05-23T16:29:23.150Z,9.28
2019-05-23T16:31:54.258Z,9.23
2019-05-23T16:34:25.834Z,8.50
2019-05-23T16:36:56.947Z,8.45
2019-05-23T16:39:45.438Z,8.08
2019-05-23T16:42:01.000Z,7.83
2019-05-23T16:44:32.105Z,7.33
2019-05-23T16:47:03.400Z,7.17
2019-05-23T16:49:34.459Z,7.00
2019-05-23T16:52:05.957Z,7.15
2019-05-23T16:54:38.264Z,7.40
2019-05-23T16:57:09.337Z,7.37
2019-05-23T16:59:41.578Z,7.12
2019-05-23T17:02:13.979Z,7.55
2019-05-23T17:04:46.546Z,8.00
2019-05-23T17:07:19.009Z,7.83
2019-05-23T17:10:07.438Z,6.80
2019-05-23T17:12:24.957Z,7.08
2019-05-23T17:14:57.275Z,7.10
2019-05-23T17:17:56.743Z,7.72
2019-05-23T17:20:18.516Z,7.67
2019-05-23T17:22:37.336Z,8.10
2019-05-23T17:25:11.002Z,7.97
2019-05-23T17:27:43.379Z,7.67
2019-05-23T17:30:14.736Z,7.97
2019-05-23T17:32:46.252Z,8.23
2019-05-23T17:35:17.276Z,7.60
2019-05-23T17:37:50.733Z,7.60
2019-05-23T17:40:24.701Z,8.43
2019-05-23T17:42:54.265Z,8.35
2019-05-23T17:45:26.010Z,9.18
2019-05-23T17:47:57.102Z,9.35
2019-05-23T17:50:30.386Z,9.40
2019-05-23T17:53:00.844Z,10.40
2019-05-23T17:55:39.802Z,9.38
2019-05-23T17:58:11.048Z,9.30
2019-05-23T18:00:43.621Z,9.48
2019-05-23T18:03:19.093Z,9.63
2019-05-23T18:05:50.662Z,8.75
2019-05-23T18:08:22.105Z,9.40
2019-05-23T18:10:53.277Z,9.78
2019-05-23T18:13:24.473Z,9.48
2019-05-23T18:15:56.406Z,10.18
2019-05-23T18:18:27.659Z,9.58
2019-05-23T18:20:58.701Z,9.98
2019-05-23T18:23:30.010Z,9.48
2019-05-23T18:26:01.090Z,10.43
2019-05-23T18:28:32.479Z,9.85
2019-05-23T18:31:08.165Z,11.08
2019-05-23T18:33:40.828Z,9.83
2019-05-23T18:36:12.899Z,11.30
2019-05-23T18:38:44.074Z,11.33
2019-05-23T18:41:15.215Z,10.20
2019-05-23T18:43:47.786Z,11.55
2019-05-23T18:46:20.271Z,12.63
2019-05-23T18:48:53.867Z,12.60
2019-05-23T18:51:25.155Z,13.40
2019-05-23T18:53:56.383Z,12.75
2019-05-23T18:56:27.404Z,12.07
2019-05-23T18:58:59.517Z,11.03
2019-05-23T19:01:30.564Z,10.93
2019-05-23T19:04:01.473Z,10.95
2019-05-23T19:06:32.643Z,10.75
2019-05-23T19:09:03.662Z,11.00
2019-05-23T19:11:35.358Z,10.30
2019-05-23T19:14:06.521Z,9.60
2019-05-23T19:16:38.510Z,9.65
2019-05-23T19:19:09.987Z,9.25
2019-05-23T19:21:41.304Z,10.80
2019-05-23T19:24:12.828Z,10.45
2019-05-23T19:26:44.044Z,10.50
2019-05-23T19:29:15.198Z,10.80
2019-05-23T19:31:46.307Z,10.28
2019-05-23T19:34:17.386Z,10.45
2019-05-23T19:36:48.523Z,10.00
2019-05-23T19:39:19.624Z,10.08
2019-05-23T19:41:50.619Z,10.55
2019-05-23T19:44:21.564Z,10.43
2019-05-23T19:46:52.722Z,10.08
2019-05-23T19:49:27.165Z,9.93
2019-05-23T19:51:56.433Z,10.82
2019-05-23T19:54:27.967Z,11.48
2019-05-23T19:56:58.968Z,10.15
2019-05-23T19:59:30.052Z,10.43
2019-05-23T20:02:02.531Z,12.28
2019-05-23T20:04:34.701Z,11.43
2019-05-23T20:07:06.276Z,11.38
2019-05-23T20:09:37.348Z,10.40
2019-05-23T20:12:08.413Z,11.38
2019-05-23T20:14:39.470Z,10.82
2019-05-23T20:17:11.029Z,13.25
2019-05-23T20:19:42.131Z,11.22
2019-05-23T20:22:13.059Z,12.33
2019-05-23T20:24:43.983Z,12.75
2019-05-23T20:27:15.053Z,12.05
2019-05-23T20:29:45.990Z,12.43
2019-05-23T20:32:17.215Z,12.78
2019-05-23T20:34:48.295Z,13.13
2019-05-23T20:37:20.814Z,13.93
2019-05-23T20:39:51.913Z,14.30
2019-05-23T20:42:22.966Z,14.55
2019-05-23T20:44:54.126Z,14.07
2019-05-23T20:47:25.947Z,13.95
2019-05-23T20:49:56.950Z,14.73
2019-05-23T20:52:28.020Z,14.13
2019-05-23T20:54:58.822Z,14.05
2019-05-23T20:57:29.922Z,15.32
2019-05-23T21:00:01.771Z,15.70
2019-05-23T21:02:33.228Z,17.32
2019-05-23T21:05:04.692Z,18.12
2019-05-23T21:07:35.747Z,18.02
2019-05-23T21:10:07.990Z,17.75
2019-05-23T21:12:39.245Z,17.32
2019-05-23T21:15:10.423Z,16.25
2019-05-23T21:17:41.328Z,16.73
2019-05-23T21:20:12.489Z,15.50
2019-05-23T21:22:43.904Z,14.28
2019-05-23T21:25:14.918Z,15.85
2019-05-23T21:27:46.378Z,13.38
2019-05-23T21:30:17.555Z,14.07
2019-05-23T21:32:48.593Z,13.20
2019-05-23T21:35:19.535Z,14.43
2019-05-23T21:37:50.440Z,13.22
2019-05-23T21:40:23.628Z,14.38
2019-05-23T21:42:54.598Z,14.90
2019-05-23T21:45:25.832Z,14.33
2019-05-23T21:47:56.877Z,13.75
2019-05-23T21:50:27.898Z,14.15
2019-05-23T21:52:58.964Z,15.88
2019-05-23T21:55:32.291Z,14.55
2019-05-23T21:58:03.458Z,15.75
2019-05-23T22:00:38.102Z,15.23
2019-05-23T22:03:10.422Z,15.55
2019-05-23T22:05:41.434Z,16.00
2019-05-23T22:08:12.497Z,16.15
2019-05-23T22:10:43.644Z,17.25
2019-05-23T22:13:14.588Z,16.87
2019-05-23T22:15:45.605Z,16.65
2019-05-23T22:18:17.020Z,18.32
2019-05-23T22:20:48.018Z,18.32
2019-05-23T22:23:18.974Z,19.45
2019-05-23T22:25:50.067Z,22.55
2019-05-23T22:28:21.600Z,19.98
2019-05-23T22:30:52.873Z,18.57
2019-05-23T22:33:25.446Z,18.07
2019-05-23T22:35:56.667Z,18.48
2019-05-23T22:38:27.889Z,18.98
2019-05-23T22:40:59.155Z,22.55
2019-05-23T22:43:30.510Z,25.85
2019-05-23T22:46:01.538Z,27.30
2019-05-23T22:48:33.353Z,19.48
2019-05-23T22:51:04.326Z,17.77
2019-05-23T22:53:36.055Z,19.12
2019-05-23T22:56:07.438Z,19.75
2019-05-23T22:58:38.541Z,20.00
2019-05-23T23:01:09.598Z,19.42
2019-05-23T23:03:40.474Z,17.67
2019-05-23T23:06:11.710Z,19.90
2019-05-23T23:08:42.683Z,24.47
2019-05-23T23:11:13.862Z,25.25
2019-05-23T23:13:45.173Z,24.25
2019-05-23T23:16:16.498Z,20.95
2019-05-23T23:18:47.651Z,20.15
2019-05-23T23:21:18.679Z,18.62
2019-05-23T23:23:50.061Z,17.05
2019-05-23T23:26:21.259Z,16.40
2019-05-23T23:28:52.294Z,17.17
2019-05-23T23:31:23.186Z,16.73
2019-05-23T23:33:54.106Z,15.85
2019-05-23T23:36:25.275Z,18.98
2019-05-23T23:38:56.278Z,18.32
2019-05-23T23:44:12.750Z,20.62
2019-05-23T23:46:45.018Z,18.95
2019-05-23T23:49:17.509Z,20.95
2019-05-23T23:51:49.782Z,18.62
2019-05-23T23:54:22.354Z,16.82
2019-05-23T23:56:55.030Z,18.67
2019-05-23T23:59:25.556Z,20.60
